sensor_id;sensor_type;location;lat;lon;timestamp;P1;durP1;ratioP1;P2;durP2;ratioP2
24030;SDS011;12240;51.142;22.486;2022-12-18T00:00:06;85.18;;;25.85;;
24030;SDS011;12240;51.142;22.486;2022-12-18T00:02:41;83.93;;;24.00;;
24030;SDS011;12240;51.142;22.486;2022-12-18T00:05:10;64.27;;;17.10;;
24030;SDS011;12240;51.142;22.486;2022-12-18T00:07:38;65.87;;;19.33;;
24030;SDS011;12240;51.142;22.486;2022-12-18T00:10:06;77.80;;;21.27;;
24030;SDS011;12240;51.142;22.486;2022-12-18T00:12:35;82.00;;;23.40;;
24030;SDS011;12240;51.142;22.486;2022-12-18T00:15:03;91.10;;;24.87;;
24030;SDS011;12240;51.142;22.486;2022-12-18T00:17:32;106.63;;;23.33;;
24030;SDS011;12240;51.142;22.486;2022-12-18T00:20:00;59.13;;;17.02;;
24030;SDS011;12240;51.142;22.486;2022-12-18T00:22:28;78.85;;;23.90;;
24030;SDS011;12240;51.142;22.486;2022-12-18T00:24:56;98.80;;;30.07;;
24030;SDS011;12240;51.142;22.486;2022-12-18T00:27:25;64.23;;;16.57;;
24030;SDS011;12240;51.142;22.486;2022-12-18T00:29:53;75.00;;;22.75;;
24030;SDS011;12240;51.142;22.486;2022-12-18T00:32:21;74.78;;;21.83;;
24030;SDS011;12240;51.142;22.486;2022-12-18T00:34:49;76.93;;;25.70;;
24030;SDS011;12240;51.142;22.486;2022-12-18T00:37:17;68.43;;;19.63;;
24030;SDS011;12240;51.142;22.486;2022-12-18T00:39:50;59.97;;;17.33;;
24030;SDS011;12240;51.142;22.486;2022-12-18T00:42:19;76.50;;;22.23;;
24030;SDS011;12240;51.142;22.486;2022-12-18T00:45:06;46.97;;;14.63;;
24030;SDS011;12240;51.142;22.486;2022-12-18T00:47:39;79.05;;;21.15;;
24030;SDS011;12240;51.142;22.486;2022-12-18T00:50:08;67.80;;;20.67;;
24030;SDS011;12240;51.142;22.486;2022-12-18T00:52:40;62.83;;;17.90;;
24030;SDS011;12240;51.142;22.486;2022-12-18T00:55:09;73.28;;;19.83;;
24030;SDS011;12240;51.142;22.486;2022-12-18T00:57:38;54.87;;;15.73;;
24030;SDS011;12240;51.142;22.486;2022-12-18T01:00:07;63.83;;;20.20;;
24030;SDS011;12240;51.142;22.486;2022-12-18T01:02:41;78.83;;;25.30;;
24030;SDS011;12240;51.142;22.486;2022-12-18T01:05:12;59.43;;;19.67;;
24030;SDS011;12240;51.142;22.486;2022-12-18T01:07:41;71.73;;;20.50;;
24030;SDS011;12240;51.142;22.486;2022-12-18T01:10:09;81.47;;;24.47;;
24030;SDS011;12240;51.142;22.486;2022-12-18T01:12:39;73.13;;;20.63;;
24030;SDS011;12240;51.142;22.486;2022-12-18T01:15:08;66.13;;;18.03;;
24030;SDS011;12240;51.142;22.486;2022-12-18T01:17:37;63.17;;;18.93;;
24030;SDS011;12240;51.142;22.486;2022-12-18T01:20:05;61.53;;;19.03;;
24030;SDS011;12240;51.142;22.486;2022-12-18T01:22:36;47.90;;;13.85;;
24030;SDS011;12240;51.142;22.486;2022-12-18T01:25:07;68.20;;;19.33;;
24030;SDS011;12240;51.142;22.486;2022-12-18T01:27:35;88.63;;;26.17;;
24030;SDS011;12240;51.142;22.486;2022-12-18T01:30:04;48.90;;;14.30;;
24030;SDS011;12240;51.142;22.486;2022-12-18T01:32:33;50.67;;;14.73;;
24030;SDS011;12240;51.142;22.486;2022-12-18T01:35:01;76.47;;;19.50;;
24030;SDS011;12240;51.142;22.486;2022-12-18T01:37:30;71.17;;;22.20;;
24030;SDS011;12240;51.142;22.486;2022-12-18T01:39:58;66.77;;;23.40;;
24030;SDS011;12240;51.142;22.486;2022-12-18T01:42:26;59.23;;;16.30;;
24030;SDS011;12240;51.142;22.486;2022-12-18T01:44:56;60.60;;;17.13;;
24030;SDS011;12240;51.142;22.486;2022-12-18T01:53:02;60.60;;;19.07;;
24030;SDS011;12240;51.142;22.486;2022-12-18T01:55:51;53.13;;;15.90;;
24030;SDS011;12240;51.142;22.486;2022-12-18T01:58:29;56.87;;;16.60;;
24030;SDS011;12240;51.142;22.486;2022-12-18T02:01:09;49.93;;;15.67;;
24030;SDS011;12240;51.142;22.486;2022-12-18T02:03:40;54.00;;;15.57;;
24030;SDS011;12240;51.142;22.486;2022-12-18T02:06:15;53.63;;;14.97;;
24030;SDS011;12240;51.142;22.486;2022-12-18T02:09:09;46.20;;;15.63;;
24030;SDS011;12240;51.142;22.486;2022-12-18T02:14:37;51.97;;;15.73;;
24030;SDS011;12240;51.142;22.486;2022-12-18T02:17:18;53.50;;;15.73;;
24030;SDS011;12240;51.142;22.486;2022-12-18T02:20:07;52.00;;;15.07;;
24030;SDS011;12240;51.142;22.486;2022-12-18T02:28:04;63.83;;;16.40;;
24030;SDS011;12240;51.142;22.486;2022-12-18T02:30:37;63.10;;;16.53;;
24030;SDS011;12240;51.142;22.486;2022-12-18T02:33:08;72.28;;;18.02;;
24030;SDS011;12240;51.142;22.486;2022-12-18T02:35:48;55.63;;;16.07;;
24030;SDS011;12240;51.142;22.486;2022-12-18T02:38:26;62.27;;;17.80;;
24030;SDS011;12240;51.142;22.486;2022-12-18T02:41:04;73.65;;;21.65;;
24030;SDS011;12240;51.142;22.486;2022-12-18T02:43:35;59.35;;;18.88;;
24030;SDS011;12240;51.142;22.486;2022-12-18T02:49:12;79.63;;;17.75;;
24030;SDS011;12240;51.142;22.486;2022-12-18T03:04:56;78.00;;;19.58;;
24030;SDS011;12240;51.142;22.486;2022-12-18T03:10:35;72.85;;;19.02;;
24030;SDS011;12240;51.142;22.486;2022-12-18T03:13:19;70.23;;;19.93;;
24030;SDS011;12240;51.142;22.486;2022-12-18T03:15:59;79.68;;;19.60;;
24030;SDS011;12240;51.142;22.486;2022-12-18T03:18:33;74.38;;;20.45;;
24030;SDS011;12240;51.142;22.486;2022-12-18T03:21:13;61.65;;;16.73;;
24030;SDS011;12240;51.142;22.486;2022-12-18T03:23:47;78.00;;;22.10;;
24030;SDS011;12240;51.142;22.486;2022-12-18T03:26:24;70.10;;;19.67;;
24030;SDS011;12240;51.142;22.486;2022-12-18T03:29:00;74.95;;;20.70;;
24030;SDS011;12240;51.142;22.486;2022-12-18T03:31:37;64.75;;;17.17;;
24030;SDS011;12240;51.142;22.486;2022-12-18T03:34:12;78.25;;;21.70;;
24030;SDS011;12240;51.142;22.486;2022-12-18T03:36:49;56.08;;;16.95;;
24030;SDS011;12240;51.142;22.486;2022-12-18T03:39:19;64.82;;;18.15;;
24030;SDS011;12240;51.142;22.486;2022-12-18T03:47:59;63.47;;;17.90;;
24030;SDS011;12240;51.142;22.486;2022-12-18T03:50:46;60.28;;;18.50;;
24030;SDS011;12240;51.142;22.486;2022-12-18T03:56:06;35.20;;;13.27;;
24030;SDS011;12240;51.142;22.486;2022-12-18T03:58:39;46.05;;;17.05;;
24030;SDS011;12240;51.142;22.486;2022-12-18T04:01:23;49.38;;;17.10;;
24030;SDS011;12240;51.142;22.486;2022-12-18T04:04:01;41.00;;;14.27;;
24030;SDS011;12240;51.142;22.486;2022-12-18T04:06:35;45.38;;;15.18;;
24030;SDS011;12240;51.142;22.486;2022-12-18T04:09:04;33.88;;;12.10;;
24030;SDS011;12240;51.142;22.486;2022-12-18T04:11:37;39.00;;;16.30;;
24030;SDS011;12240;51.142;22.486;2022-12-18T04:14:07;44.65;;;14.90;;
24030;SDS011;12240;51.142;22.486;2022-12-18T04:16:56;35.25;;;13.38;;
24030;SDS011;12240;51.142;22.486;2022-12-18T04:19:29;47.22;;;14.93;;
24030;SDS011;12240;51.142;22.486;2022-12-18T04:21:59;49.25;;;16.77;;
24030;SDS011;12240;51.142;22.486;2022-12-18T04:24:31;38.65;;;16.45;;
24030;SDS011;12240;51.142;22.486;2022-12-18T04:27:09;41.92;;;13.98;;
24030;SDS011;12240;51.142;22.486;2022-12-18T04:29:44;42.05;;;15.13;;
24030;SDS011;12240;51.142;22.486;2022-12-18T04:32:12;36.65;;;14.38;;
24030;SDS011;12240;51.142;22.486;2022-12-18T04:34:42;31.55;;;11.15;;
24030;SDS011;12240;51.142;22.486;2022-12-18T04:37:11;28.98;;;11.65;;
24030;SDS011;12240;51.142;22.486;2022-12-18T04:39:39;34.40;;;12.73;;
24030;SDS011;12240;51.142;22.486;2022-12-18T04:42:14;43.73;;;15.80;;
24030;SDS011;12240;51.142;22.486;2022-12-18T04:44:43;39.25;;;14.88;;
24030;SDS011;12240;51.142;22.486;2022-12-18T04:47:11;33.45;;;10.82;;
24030;SDS011;12240;51.142;22.486;2022-12-18T04:49:39;37.10;;;13.52;;
24030;SDS011;12240;51.142;22.486;2022-12-18T04:52:07;49.78;;;15.95;;
24030;SDS011;12240;51.142;22.486;2022-12-18T04:54:36;33.78;;;12.45;;
24030;SDS011;12240;51.142;22.486;2022-12-18T04:57:04;42.25;;;14.25;;
24030;SDS011;12240;51.142;22.486;2022-12-18T04:59:33;27.08;;;10.90;;
24030;SDS011;12240;51.142;22.486;2022-12-18T05:02:01;40.97;;;11.85;;
24030;SDS011;12240;51.142;22.486;2022-12-18T05:04:30;36.47;;;12.88;;
24030;SDS011;12240;51.142;22.486;2022-12-18T05:06:58;36.55;;;13.05;;
24030;SDS011;12240;51.142;22.486;2022-12-18T05:09:26;35.75;;;12.95;;
24030;SDS011;12240;51.142;22.486;2022-12-18T05:11:54;39.22;;;12.73;;
24030;SDS011;12240;51.142;22.486;2022-12-18T05:14:22;39.25;;;15.13;;
24030;SDS011;12240;51.142;22.486;2022-12-18T05:16:50;45.17;;;14.27;;
24030;SDS011;12240;51.142;22.486;2022-12-18T05:19:25;42.67;;;14.45;;
24030;SDS011;12240;51.142;22.486;2022-12-18T05:21:53;46.70;;;17.98;;
24030;SDS011;12240;51.142;22.486;2022-12-18T05:24:21;38.05;;;13.80;;
24030;SDS011;12240;51.142;22.486;2022-12-18T05:26:49;35.83;;;14.00;;
24030;SDS011;12240;51.142;22.486;2022-12-18T05:29:18;45.05;;;17.00;;
24030;SDS011;12240;51.142;22.486;2022-12-18T05:31:46;59.75;;;19.60;;
24030;SDS011;12240;51.142;22.486;2022-12-18T05:34:14;43.00;;;16.23;;
24030;SDS011;12240;51.142;22.486;2022-12-18T05:36:42;39.50;;;13.93;;
24030;SDS011;12240;51.142;22.486;2022-12-18T05:39:10;46.20;;;16.67;;
24030;SDS011;12240;51.142;22.486;2022-12-18T05:41:39;43.63;;;16.08;;
24030;SDS011;12240;51.142;22.486;2022-12-18T05:44:07;32.88;;;11.05;;
24030;SDS011;12240;51.142;22.486;2022-12-18T05:46:35;42.08;;;14.88;;
24030;SDS011;12240;51.142;22.486;2022-12-18T05:49:04;52.20;;;18.92;;
24030;SDS011;12240;51.142;22.486;2022-12-18T05:51:32;40.85;;;15.52;;
24030;SDS011;12240;51.142;22.486;2022-12-18T05:54:00;32.08;;;12.82;;
24030;SDS011;12240;51.142;22.486;2022-12-18T05:56:31;48.55;;;14.65;;
24030;SDS011;12240;51.142;22.486;2022-12-18T05:59:00;35.90;;;13.75;;
24030;SDS011;12240;51.142;22.486;2022-12-18T06:01:28;39.08;;;13.15;;
24030;SDS011;12240;51.142;22.486;2022-12-18T06:03:58;38.03;;;14.45;;
24030;SDS011;12240;51.142;22.486;2022-12-18T06:06:27;30.45;;;9.70;;
24030;SDS011;12240;51.142;22.486;2022-12-18T06:08:56;41.65;;;15.93;;
24030;SDS011;12240;51.142;22.486;2022-12-18T06:11:25;38.63;;;12.18;;
24030;SDS011;12240;51.142;22.486;2022-12-18T06:13:54;48.00;;;14.50;;
24030;SDS011;12240;51.142;22.486;2022-12-18T06:16:27;41.15;;;13.68;;
24030;SDS011;12240;51.142;22.486;2022-12-18T06:18:57;50.05;;;14.52;;
24030;SDS011;12240;51.142;22.486;2022-12-18T06:21:27;65.70;;;16.42;;
24030;SDS011;12240;51.142;22.486;2022-12-18T06:23:58;49.27;;;15.80;;
24030;SDS011;12240;51.142;22.486;2022-12-18T06:26:26;48.15;;;14.35;;
24030;SDS011;12240;51.142;22.486;2022-12-18T06:28:55;51.33;;;17.23;;
24030;SDS011;12240;51.142;22.486;2022-12-18T06:31:24;51.28;;;16.35;;
24030;SDS011;12240;51.142;22.486;2022-12-18T06:33:53;52.55;;;16.00;;
24030;SDS011;12240;51.142;22.486;2022-12-18T06:36:21;50.80;;;16.10;;
24030;SDS011;12240;51.142;22.486;2022-12-18T06:38:50;42.80;;;14.15;;
24030;SDS011;12240;51.142;22.486;2022-12-18T06:41:19;52.25;;;17.02;;
24030;SDS011;12240;51.142;22.486;2022-12-18T06:43:49;46.33;;;15.32;;
24030;SDS011;12240;51.142;22.486;2022-12-18T06:46:24;62.83;;;18.73;;
24030;SDS011;12240;51.142;22.486;2022-12-18T06:48:52;58.53;;;18.95;;
24030;SDS011;12240;51.142;22.486;2022-12-18T06:51:21;65.50;;;19.40;;
24030;SDS011;12240;51.142;22.486;2022-12-18T06:53:51;46.72;;;15.60;;
24030;SDS011;12240;51.142;22.486;2022-12-18T06:56:19;51.38;;;16.88;;
24030;SDS011;12240;51.142;22.486;2022-12-18T06:58:47;56.55;;;18.08;;
24030;SDS011;12240;51.142;22.486;2022-12-18T07:01:16;56.22;;;19.20;;
24030;SDS011;12240;51.142;22.486;2022-12-18T07:03:44;55.38;;;16.58;;
24030;SDS011;12240;51.142;22.486;2022-12-18T07:06:13;54.58;;;16.50;;
24030;SDS011;12240;51.142;22.486;2022-12-18T07:08:44;52.97;;;16.80;;
24030;SDS011;12240;51.142;22.486;2022-12-18T07:11:13;44.03;;;15.23;;
24030;SDS011;12240;51.142;22.486;2022-12-18T07:13:43;48.00;;;14.82;;
24030;SDS011;12240;51.142;22.486;2022-12-18T07:16:13;52.97;;;17.85;;
24030;SDS011;12240;51.142;22.486;2022-12-18T07:18:52;57.78;;;17.83;;
24030;SDS011;12240;51.142;22.486;2022-12-18T07:21:23;49.60;;;14.32;;
24030;SDS011;12240;51.142;22.486;2022-12-18T07:23:52;43.65;;;13.43;;
24030;SDS011;12240;51.142;22.486;2022-12-18T07:26:21;41.92;;;14.00;;
24030;SDS011;12240;51.142;22.486;2022-12-18T07:28:49;59.33;;;18.30;;
24030;SDS011;12240;51.142;22.486;2022-12-18T07:31:21;54.53;;;19.67;;
24030;SDS011;12240;51.142;22.486;2022-12-18T07:33:50;40.78;;;13.40;;
24030;SDS011;12240;51.142;22.486;2022-12-18T07:36:19;51.80;;;17.92;;
24030;SDS011;12240;51.142;22.486;2022-12-18T07:38:52;72.47;;;22.17;;
24030;SDS011;12240;51.142;22.486;2022-12-18T07:41:20;46.03;;;16.08;;
24030;SDS011;12240;51.142;22.486;2022-12-18T07:43:49;47.45;;;16.88;;
24030;SDS011;12240;51.142;22.486;2022-12-18T07:46:18;43.75;;;17.27;;
24030;SDS011;12240;51.142;22.486;2022-12-18T07:48:46;39.67;;;15.95;;
24030;SDS011;12240;51.142;22.486;2022-12-18T07:51:16;45.83;;;14.40;;
24030;SDS011;12240;51.142;22.486;2022-12-18T07:53:46;45.92;;;15.25;;
24030;SDS011;12240;51.142;22.486;2022-12-18T07:56:18;52.45;;;16.90;;
24030;SDS011;12240;51.142;22.486;2022-12-18T07:58:57;54.38;;;15.23;;
24030;SDS011;12240;51.142;22.486;2022-12-18T08:01:26;31.52;;;11.50;;
24030;SDS011;12240;51.142;22.486;2022-12-18T08:03:55;51.78;;;15.52;;
24030;SDS011;12240;51.142;22.486;2022-12-18T08:06:24;38.25;;;12.38;;
24030;SDS011;12240;51.142;22.486;2022-12-18T08:08:53;52.55;;;16.75;;
24030;SDS011;12240;51.142;22.486;2022-12-18T08:11:24;40.75;;;12.85;;
24030;SDS011;12240;51.142;22.486;2022-12-18T08:13:55;50.95;;;16.15;;
24030;SDS011;12240;51.142;22.486;2022-12-18T08:16:25;50.40;;;16.38;;
24030;SDS011;12240;51.142;22.486;2022-12-18T08:18:55;38.75;;;13.05;;
24030;SDS011;12240;51.142;22.486;2022-12-18T08:21:25;44.75;;;16.90;;
24030;SDS011;12240;51.142;22.486;2022-12-18T08:24:00;52.15;;;16.83;;
24030;SDS011;12240;51.142;22.486;2022-12-18T08:26:29;31.77;;;11.77;;
24030;SDS011;12240;51.142;22.486;2022-12-18T08:28:59;40.78;;;13.18;;
24030;SDS011;12240;51.142;22.486;2022-12-18T08:31:28;43.58;;;14.23;;
24030;SDS011;12240;51.142;22.486;2022-12-18T08:33:57;52.10;;;18.02;;
24030;SDS011;12240;51.142;22.486;2022-12-18T08:36:25;39.75;;;13.18;;
24030;SDS011;12240;51.142;22.486;2022-12-18T08:38:54;25.58;;;11.45;;
24030;SDS011;12240;51.142;22.486;2022-12-18T08:41:22;45.53;;;14.63;;
24030;SDS011;12240;51.142;22.486;2022-12-18T08:43:50;40.13;;;12.48;;
24030;SDS011;12240;51.142;22.486;2022-12-18T08:46:38;42.90;;;12.38;;
24030;SDS011;12240;51.142;22.486;2022-12-18T08:49:09;36.35;;;12.45;;
24030;SDS011;12240;51.142;22.486;2022-12-18T08:51:39;38.63;;;14.65;;
24030;SDS011;12240;51.142;22.486;2022-12-18T08:54:08;41.78;;;14.57;;
24030;SDS011;12240;51.142;22.486;2022-12-18T08:56:40;39.75;;;12.48;;
24030;SDS011;12240;51.142;22.486;2022-12-18T08:59:09;38.95;;;14.82;;
24030;SDS011;12240;51.142;22.486;2022-12-18T09:01:45;25.55;;;9.02;;
24030;SDS011;12240;51.142;22.486;2022-12-18T09:04:15;48.30;;;14.65;;
24030;SDS011;12240;51.142;22.486;2022-12-18T09:06:44;50.67;;;15.43;;
24030;SDS011;12240;51.142;22.486;2022-12-18T09:09:12;47.63;;;16.52;;
24030;SDS011;12240;51.142;22.486;2022-12-18T09:11:40;38.03;;;14.60;;
24030;SDS011;12240;51.142;22.486;2022-12-18T09:14:08;41.72;;;14.88;;
24030;SDS011;12240;51.142;22.486;2022-12-18T09:16:37;38.63;;;14.30;;
24030;SDS011;12240;51.142;22.486;2022-12-18T09:19:06;52.83;;;15.45;;
24030;SDS011;12240;51.142;22.486;2022-12-18T09:21:34;46.10;;;16.73;;
24030;SDS011;12240;51.142;22.486;2022-12-18T09:24:11;41.35;;;12.63;;
24030;SDS011;12240;51.142;22.486;2022-12-18T09:26:41;44.80;;;16.00;;
24030;SDS011;12240;51.142;22.486;2022-12-18T09:29:14;44.08;;;15.43;;
24030;SDS011;12240;51.142;22.486;2022-12-18T09:34:13;47.22;;;14.02;;
24030;SDS011;12240;51.142;22.486;2022-12-18T09:36:42;35.67;;;13.98;;
24030;SDS011;12240;51.142;22.486;2022-12-18T09:39:10;42.15;;;17.00;;
24030;SDS011;12240;51.142;22.486;2022-12-18T09:41:40;44.63;;;15.68;;
24030;SDS011;12240;51.142;22.486;2022-12-18T09:47:17;45.45;;;15.52;;
24030;SDS011;12240;51.142;22.486;2022-12-18T09:49:56;49.25;;;18.48;;
24030;SDS011;12240;51.142;22.486;2022-12-18T09:52:40;44.15;;;16.25;;
24030;SDS011;12240;51.142;22.486;2022-12-18T10:00:59;50.08;;;17.88;;
24030;SDS011;12240;51.142;22.486;2022-12-18T10:03:28;56.60;;;19.95;;
24030;SDS011;12240;51.142;22.486;2022-12-18T10:06:13;51.28;;;16.70;;
24030;SDS011;12240;51.142;22.486;2022-12-18T10:08:52;42.05;;;14.32;;
24030;SDS011;12240;51.142;22.486;2022-12-18T10:11:32;46.45;;;16.45;;
24030;SDS011;12240;51.142;22.486;2022-12-18T10:14:22;49.60;;;17.13;;
24030;SDS011;12240;51.142;22.486;2022-12-18T10:20:33;57.20;;;20.13;;
24030;SDS011;12240;51.142;22.486;2022-12-18T10:26:21;53.38;;;16.45;;
24030;SDS011;12240;51.142;22.486;2022-12-18T10:28:49;55.20;;;16.70;;
24030;SDS011;12240;51.142;22.486;2022-12-18T10:31:21;49.15;;;16.50;;
24030;SDS011;12240;51.142;22.486;2022-12-18T10:33:53;48.53;;;14.35;;
24030;SDS011;12240;51.142;22.486;2022-12-18T10:36:23;49.50;;;17.90;;
24030;SDS011;12240;51.142;22.486;2022-12-18T10:38:52;32.17;;;14.48;;
24030;SDS011;12240;51.142;22.486;2022-12-18T10:43:52;50.58;;;16.33;;
24030;SDS011;12240;51.142;22.486;2022-12-18T10:46:50;47.47;;;14.90;;
24030;SDS011;12240;51.142;22.486;2022-12-18T10:49:37;38.30;;;12.77;;
24030;SDS011;12240;51.142;22.486;2022-12-18T10:52:21;43.50;;;16.92;;
24030;SDS011;12240;51.142;22.486;2022-12-18T10:54:57;49.20;;;14.32;;
24030;SDS011;12240;51.142;22.486;2022-12-18T10:57:35;45.28;;;14.13;;
24030;SDS011;12240;51.142;22.486;2022-12-18T11:00:28;48.95;;;14.82;;
24030;SDS011;12240;51.142;22.486;2022-12-18T11:03:00;50.63;;;15.77;;
24030;SDS011;12240;51.142;22.486;2022-12-18T11:05:30;45.78;;;15.13;;
24030;SDS011;12240;51.142;22.486;2022-12-18T11:15:45;34.70;;;12.07;;
24030;SDS011;12240;51.142;22.486;2022-12-18T11:25:55;52.13;;;19.25;;
24030;SDS011;12240;51.142;22.486;2022-12-18T11:34:05;28.38;;;9.77;;
24030;SDS011;12240;51.142;22.486;2022-12-18T11:37:14;47.33;;;14.40;;
24030;SDS011;12240;51.142;22.486;2022-12-18T11:39:50;45.58;;;13.70;;
24030;SDS011;12240;51.142;22.486;2022-12-18T11:42:47;43.00;;;15.30;;
24030;SDS011;12240;51.142;22.486;2022-12-18T11:45:34;44.88;;;14.95;;
24030;SDS011;12240;51.142;22.486;2022-12-18T11:51:33;42.05;;;14.45;;
24030;SDS011;12240;51.142;22.486;2022-12-18T11:54:19;50.65;;;18.65;;
24030;SDS011;12240;51.142;22.486;2022-12-18T11:56:51;54.17;;;18.60;;
24030;SDS011;12240;51.142;22.486;2022-12-18T11:59:39;43.50;;;14.27;;
24030;SDS011;12240;51.142;22.486;2022-12-18T12:02:17;46.88;;;15.15;;
24030;SDS011;12240;51.142;22.486;2022-12-18T12:16:33;46.72;;;15.73;;
24030;SDS011;12240;51.142;22.486;2022-12-18T12:19:35;50.00;;;16.02;;
24030;SDS011;12240;51.142;22.486;2022-12-18T12:22:31;48.60;;;16.27;;
24030;SDS011;12240;51.142;22.486;2022-12-18T12:30:58;46.85;;;16.13;;
24030;SDS011;12240;51.142;22.486;2022-12-18T12:36:57;50.63;;;17.52;;
24030;SDS011;12240;51.142;22.486;2022-12-18T12:39:46;60.90;;;19.05;;
24030;SDS011;12240;51.142;22.486;2022-12-18T12:42:29;55.60;;;19.20;;
24030;SDS011;12240;51.142;22.486;2022-12-18T12:53:53;40.10;;;13.68;;
24030;SDS011;12240;51.142;22.486;2022-12-18T12:56:26;41.25;;;12.95;;
24030;SDS011;12240;51.142;22.486;2022-12-18T12:59:30;34.90;;;12.00;;
24030;SDS011;12240;51.142;22.486;2022-12-18T13:06:11;43.25;;;13.32;;
24030;SDS011;12240;51.142;22.486;2022-12-18T13:09:01;37.55;;;13.65;;
24030;SDS011;12240;51.142;22.486;2022-12-18T13:11:39;39.22;;;12.98;;
24030;SDS011;12240;51.142;22.486;2022-12-18T13:14:34;28.00;;;10.48;;
24030;SDS011;12240;51.142;22.486;2022-12-18T13:19:51;43.58;;;11.90;;
24030;SDS011;12240;51.142;22.486;2022-12-18T13:22:46;52.80;;;15.18;;
24030;SDS011;12240;51.142;22.486;2022-12-18T13:25:27;34.17;;;11.98;;
24030;SDS011;12240;51.142;22.486;2022-12-18T13:28:03;32.03;;;10.63;;
24030;SDS011;12240;51.142;22.486;2022-12-18T13:36:10;30.05;;;10.82;;
24030;SDS011;12240;51.142;22.486;2022-12-18T13:44:38;24.13;;;8.13;;
24030;SDS011;12240;51.142;22.486;2022-12-18T13:47:24;39.92;;;12.88;;
24030;SDS011;12240;51.142;22.486;2022-12-18T13:50:10;45.85;;;15.02;;
24030;SDS011;12240;51.142;22.486;2022-12-18T13:52:58;39.20;;;13.60;;
24030;SDS011;12240;51.142;22.486;2022-12-18T13:55:27;35.45;;;11.23;;
24030;SDS011;12240;51.142;22.486;2022-12-18T13:58:03;36.50;;;12.27;;
24030;SDS011;12240;51.142;22.486;2022-12-18T14:00:34;29.92;;;9.48;;
24030;SDS011;12240;51.142;22.486;2022-12-18T14:03:15;24.88;;;9.32;;
24030;SDS011;12240;51.142;22.486;2022-12-18T14:05:56;28.38;;;9.80;;
24030;SDS011;12240;51.142;22.486;2022-12-18T14:08:37;27.17;;;9.05;;
24030;SDS011;12240;51.142;22.486;2022-12-18T14:11:17;26.20;;;9.38;;
24030;SDS011;12240;51.142;22.486;2022-12-18T14:13:52;19.60;;;6.95;;
24030;SDS011;12240;51.142;22.486;2022-12-18T14:16:21;28.52;;;9.82;;
24030;SDS011;12240;51.142;22.486;2022-12-18T14:18:52;35.80;;;12.20;;
24030;SDS011;12240;51.142;22.486;2022-12-18T14:21:30;29.55;;;10.77;;
24030;SDS011;12240;51.142;22.486;2022-12-18T14:24:02;33.72;;;9.80;;
24030;SDS011;12240;51.142;22.486;2022-12-18T14:26:46;26.33;;;9.75;;
24030;SDS011;12240;51.142;22.486;2022-12-18T14:29:51;30.17;;;10.15;;
24030;SDS011;12240;51.142;22.486;2022-12-18T14:34:49;30.45;;;9.32;;
24030;SDS011;12240;51.142;22.486;2022-12-18T14:37:40;24.38;;;9.43;;
24030;SDS011;12240;51.142;22.486;2022-12-18T14:40:12;33.72;;;10.27;;
24030;SDS011;12240;51.142;22.486;2022-12-18T14:42:41;32.05;;;10.65;;
24030;SDS011;12240;51.142;22.486;2022-12-18T14:50:57;43.33;;;11.57;;
24030;SDS011;12240;51.142;22.486;2022-12-18T14:53:46;26.10;;;8.57;;
24030;SDS011;12240;51.142;22.486;2022-12-18T14:56:24;28.35;;;8.95;;
24030;SDS011;12240;51.142;22.486;2022-12-18T14:59:14;31.08;;;10.93;;
24030;SDS011;12240;51.142;22.486;2022-12-18T15:04:33;46.42;;;15.75;;
24030;SDS011;12240;51.142;22.486;2022-12-18T15:12:44;56.42;;;14.70;;
24030;SDS011;12240;51.142;22.486;2022-12-18T15:20:41;33.63;;;11.68;;
24030;SDS011;12240;51.142;22.486;2022-12-18T15:23:33;62.03;;;16.25;;
24030;SDS011;12240;51.142;22.486;2022-12-18T15:26:13;64.75;;;19.23;;
24030;SDS011;12240;51.142;22.486;2022-12-18T15:28:56;40.15;;;13.35;;
24030;SDS011;12240;51.142;22.486;2022-12-18T15:31:31;32.50;;;10.70;;
24030;SDS011;12240;51.142;22.486;2022-12-18T15:34:13;36.55;;;12.65;;
24030;SDS011;12240;51.142;22.486;2022-12-18T15:36:49;44.83;;;14.02;;
24030;SDS011;12240;51.142;22.486;2022-12-18T15:39:18;42.78;;;13.60;;
24030;SDS011;12240;51.142;22.486;2022-12-18T15:41:46;35.90;;;12.13;;
24030;SDS011;12240;51.142;22.486;2022-12-18T15:44:35;28.58;;;9.13;;
24030;SDS011;12240;51.142;22.486;2022-12-18T15:47:10;26.58;;;10.02;;
24030;SDS011;12240;51.142;22.486;2022-12-18T15:49:46;25.88;;;9.60;;
24030;SDS011;12240;51.142;22.486;2022-12-18T15:52:20;24.95;;;10.02;;
24030;SDS011;12240;51.142;22.486;2022-12-18T15:55:20;28.20;;;9.57;;
24030;SDS011;12240;51.142;22.486;2022-12-18T15:58:32;32.25;;;9.10;;
24030;SDS011;12240;51.142;22.486;2022-12-18T16:01:16;31.65;;;9.50;;
24030;SDS011;12240;51.142;22.486;2022-12-18T16:04:10;31.48;;;10.23;;
24030;SDS011;12240;51.142;22.486;2022-12-18T16:06:44;32.53;;;9.98;;
24030;SDS011;12240;51.142;22.486;2022-12-18T16:09:41;34.78;;;11.05;;
24030;SDS011;12240;51.142;22.486;2022-12-18T16:12:31;29.85;;;9.73;;
24030;SDS011;12240;51.142;22.486;2022-12-18T16:15:13;30.27;;;10.23;;
24030;SDS011;12240;51.142;22.486;2022-12-18T16:17:57;39.78;;;12.15;;
24030;SDS011;12240;51.142;22.486;2022-12-18T16:20:46;33.53;;;11.20;;
24030;SDS011;12240;51.142;22.486;2022-12-18T16:23:19;44.50;;;17.77;;
24030;SDS011;12240;51.142;22.486;2022-12-18T16:25:50;41.63;;;15.27;;
24030;SDS011;12240;51.142;22.486;2022-12-18T16:28:29;35.70;;;16.73;;
24030;SDS011;12240;51.142;22.486;2022-12-18T16:31:30;36.90;;;12.00;;
24030;SDS011;12240;51.142;22.486;2022-12-18T16:34:13;34.33;;;11.00;;
24030;SDS011;12240;51.142;22.486;2022-12-18T16:37:02;45.05;;;14.85;;
24030;SDS011;12240;51.142;22.486;2022-12-18T16:39:55;30.00;;;10.05;;
24030;SDS011;12240;51.142;22.486;2022-12-18T16:42:55;35.63;;;11.75;;
24030;SDS011;12240;51.142;22.486;2022-12-18T16:45:46;51.78;;;13.63;;
24030;SDS011;12240;51.142;22.486;2022-12-18T16:48:22;42.85;;;13.63;;
24030;SDS011;12240;51.142;22.486;2022-12-18T16:51:07;33.13;;;10.60;;
24030;SDS011;12240;51.142;22.486;2022-12-18T16:53:43;30.20;;;9.48;;
24030;SDS011;12240;51.142;22.486;2022-12-18T16:56:19;29.88;;;9.73;;
24030;SDS011;12240;51.142;22.486;2022-12-18T16:58:54;29.67;;;9.80;;
24030;SDS011;12240;51.142;22.486;2022-12-18T17:01:28;30.75;;;9.40;;
24030;SDS011;12240;51.142;22.486;2022-12-18T17:04:04;30.77;;;10.45;;
24030;SDS011;12240;51.142;22.486;2022-12-18T17:06:49;27.17;;;10.20;;
24030;SDS011;12240;51.142;22.486;2022-12-18T17:09:34;28.48;;;9.20;;
24030;SDS011;12240;51.142;22.486;2022-12-18T17:12:17;27.25;;;9.30;;
24030;SDS011;12240;51.142;22.486;2022-12-18T17:14:53;24.05;;;8.77;;
24030;SDS011;12240;51.142;22.486;2022-12-18T17:17:27;32.75;;;10.35;;
24030;SDS011;12240;51.142;22.486;2022-12-18T17:20:02;24.52;;;8.68;;
24030;SDS011;12240;51.142;22.486;2022-12-18T17:22:32;26.83;;;9.93;;
24030;SDS011;12240;51.142;22.486;2022-12-18T17:25:23;31.15;;;9.60;;
24030;SDS011;12240;51.142;22.486;2022-12-18T17:28:01;30.40;;;10.15;;
24030;SDS011;12240;51.142;22.486;2022-12-18T17:31:13;28.92;;;9.65;;